Time;durP1;ratioP1;P1;durP2;ratioP2;P2;SDS_P1;SDS_P2;PMS_P1;PMS_P2;Temp;Humidity;BMP_temperature;BMP_pressure;BME280_temperature;BME280_humidity;BME280_pressure;Samples;Min_cycle;Max_cycle;Signal;HPM_P1;HPM_P2
2022/03/25 00:01:25;;;;;;;9.95;7.40;;;;;;;5.93;64.48;100614.06;1699334;83;21003;-73
2022/03/25 00:03:53;;;;;;;10.82;8.00;;;;;;;5.87;64.60;100621.83;1696907;82;21051;-72
2022/03/25 00:06:22;;;;;;;10.15;7.47;;;;;;;5.77;64.71;100624.20;1695072;82;22367;-72
2022/03/25 00:08:49;;;;;;;10.95;7.47;;;;;;;5.69;64.90;100617.88;1695193;83;21103;-73
2022/03/25 00:11:16;;;;;;;10.03;7.33;;;;;;;5.69;65.04;100619.72;1688266;83;21039;-73
2022/03/25 00:13:44;;;;;;;10.32;7.75;;;;;;;5.67;65.16;100613.33;1688721;83;21118;-72
2022/03/25 00:16:11;;;;;;;12.13;9.03;;;;;;;5.72;65.23;100610.00;1680615;84;21062;-73
2022/03/25 00:18:38;;;;;;;11.70;8.60;;;;;;;5.74;65.26;100611.40;1669590;84;21163;-72
2022/03/25 00:21:05;;;;;;;12.07;9.45;;;;;;;5.71;65.32;100613.17;1682567;83;21047;-73
2022/03/25 00:23:33;;;;;;;11.30;8.43;;;;;;;5.70;65.42;100612.08;1679433;84;21102;-73
2022/03/25 00:26:01;;;;;;;11.43;8.55;;;;;;;5.70;65.51;100614.21;1673736;85;21161;-72
2022/03/25 00:28:29;;;;;;;11.40;8.60;;;;;;;5.73;65.55;100611.64;1681490;84;21151;-73
2022/03/25 00:30:56;;;;;;;12.45;8.98;;;;;;;5.76;65.58;100616.46;1679924;84;21263;-73
2022/03/25 00:33:24;;;;;;;11.73;9.18;;;;;;;5.75;65.60;100613.01;1683305;84;21325;-73
2022/03/25 00:35:51;;;;;;;12.85;9.20;;;;;;;5.71;65.57;100605.22;1695590;83;21110;-73
2022/03/25 00:38:19;;;;;;;13.13;9.55;;;;;;;5.67;65.65;100613.33;1677105;85;21043;-73
2022/03/25 00:40:49;;;;;;;14.43;9.60;;;;;;;5.64;65.75;100606.63;1678156;83;21478;-73
2022/03/25 00:43:16;;;;;;;11.38;9.48;;;;;;;5.67;65.85;100593.97;1689032;84;21714;-74
2022/03/25 00:45:44;;;;;;;13.98;9.98;;;;;;;5.70;65.88;100600.16;1691033;83;21106;-74
2022/03/25 00:48:13;;;;;;;13.70;9.18;;;;;;;5.73;65.92;100605.81;1694960;83;21124;-73
2022/03/25 00:50:42;;;;;;;12.98;9.20;;;;;;;5.74;65.93;100608.75;1691523;84;21062;-74
2022/03/25 00:53:11;;;;;;;12.60;8.95;;;;;;;5.68;65.90;100613.61;1691541;83;21070;-73
2022/03/25 00:55:40;;;;;;;14.25;9.35;;;;;;;5.59;66.03;100628.19;1700617;82;21860;-72
2022/03/25 00:58:08;;;;;;;14.00;9.85;;;;;;;5.47;66.18;100634.77;1669321;83;21059;-72
2022/03/25 01:00:37;;;;;;;13.15;9.98;;;;;;;5.37;66.38;100632.63;1690926;83;21512;-72
2022/03/25 01:03:05;;;;;;;13.60;9.63;;;;;;;5.28;66.61;100629.16;1682727;83;22306;-73
2022/03/25 01:05:34;;;;;;;12.33;8.80;;;;;;;5.21;66.83;100634.53;1693768;83;21125;-72
2022/03/25 01:08:02;;;;;;;12.23;8.90;;;;;;;5.20;67.08;100640.86;1684030;83;21963;-73
2022/03/25 01:10:31;;;;;;;12.90;9.35;;;;;;;5.16;67.28;100648.41;1673537;85;21563;-72
2022/03/25 01:12:58;;;;;;;12.65;9.30;;;;;;;5.12;67.49;100651.72;1690239;84;21066;-73
2022/03/25 01:15:26;;;;;;;12.15;9.50;;;;;;;5.11;67.71;100658.05;1691261;84;20985;-73
2022/03/25 01:17:53;;;;;;;11.30;8.50;;;;;;;5.15;67.87;100656.58;1691523;83;21082;-72
2022/03/25 01:20:21;;;;;;;12.35;9.23;;;;;;;5.15;67.87;100652.61;1690086;84;21323;-72
2022/03/25 01:22:49;;;;;;;14.65;9.93;;;;;;;5.16;67.90;100655.55;1666435;83;21070;-73
2022/03/25 01:25:18;;;;;;;12.75;9.38;;;;;;;5.17;67.80;100659.31;1688162;83;21628;-73
2022/03/25 01:27:46;;;;;;;12.82;9.60;;;;;;;5.17;67.63;100659.83;1686176;83;21133;-73
2022/03/25 01:30:13;;;;;;;12.00;8.63;;;;;;;5.10;67.51;100662.55;1709568;83;21085;-74
2022/03/25 01:32:40;;;;;;;12.95;8.98;;;;;;;5.02;67.51;100668.62;1718430;83;21224;-73
2022/03/25 01:35:11;;;;;;;14.20;10.45;;;;;;;4.88;67.52;100680.64;1720219;83;21061;-73
2022/03/25 01:37:39;;;;;;;14.15;10.55;;;;;;;4.75;67.65;100675.45;1708600;83;21576;-72
2022/03/25 01:40:09;;;;;;;14.13;10.35;;;;;;;4.71;67.77;100676.92;1665673;84;21063;-73
2022/03/25 01:42:41;;;;;;;14.45;10.13;;;;;;;4.75;67.77;100679.94;1651158;85;21671;-73
2022/03/25 01:45:12;;;;;;;15.90;10.50;;;;;;;4.79;67.76;100689.06;1694229;82;21861;-73
2022/03/25 01:47:40;;;;;;;14.43;9.33;;;;;;;4.79;67.76;100689.87;1666386;85;20986;-73
2022/03/25 01:50:18;;;;;;;16.55;10.93;;;;;;;4.75;67.83;100695.82;1662525;86;21581;-73
2022/03/25 01:52:46;;;;;;;16.82;11.10;;;;;;;4.65;67.81;100700.27;1675636;84;21640;-73
2022/03/25 01:55:27;;;;;;;15.80;11.30;;;;;;;4.57;67.78;100701.31;1695222;83;21133;-73
2022/03/25 01:57:57;;;;;;;15.20;11.00;;;;;;;4.52;67.84;100710.93;1691490;83;21865;-73
2022/03/25 02:00:27;;;;;;;15.20;10.72;;;;;;;4.41;67.90;100713.23;1696430;83;21382;-73
2022/03/25 02:02:54;;;;;;;20.40;14.23;;;;;;;4.31;68.07;100718.66;1573397;83;10000028;-73
2022/03/25 02:05:22;;;;;;;19.45;12.03;;;;;;;4.20;68.36;100729.39;1690097;83;21669;-73
2022/03/25 02:07:50;;;;;;;18.80;13.08;;;;;;;4.14;68.71;100726.27;1698677;83;21145;-73
2022/03/25 02:10:19;;;;;;;22.77;14.80;;;;;;;4.08;69.01;100738.52;1691230;84;21020;-73
2022/03/25 02:12:50;;;;;;;18.25;12.70;;;;;;;4.02;69.37;100737.22;1690655;83;21054;-73
2022/03/25 02:15:17;;;;;;;20.65;15.88;;;;;;;4.03;69.78;100742.28;1676239;84;21083;-74
2022/03/25 02:17:45;;;;;;;21.10;15.45;;;;;;;4.00;70.15;100738.22;1685332;82;22143;-73
2022/03/25 02:20:12;;;;;;;23.52;16.57;;;;;;;3.99;70.37;100737.92;1702262;83;21582;-73
2022/03/25 02:22:41;;;;;;;22.00;16.27;;;;;;;4.02;70.51;100739.34;1706528;82;21026;-73
2022/03/25 02:25:12;;;;;;;24.77;17.67;;;;;;;4.07;70.65;100742.16;1698096;83;21062;-73
2022/03/25 02:27:41;;;;;;;26.20;18.37;;;;;;;4.15;70.67;100753.02;1668308;84;21099;-72
2022/03/25 02:30:12;;;;;;;23.85;17.35;;;;;;;4.21;70.72;100760.09;1647684;85;21119;-72
2022/03/25 02:32:40;;;;;;;24.63;18.37;;;;;;;4.26;70.74;100758.16;1659962;86;21260;-72
2022/03/25 02:35:10;;;;;;;25.17;18.05;;;;;;;4.33;70.79;100754.45;1641775;86;22165;-73
2022/03/25 02:37:37;;;;;;;25.70;19.05;;;;;;;4.40;70.68;100754.42;1655850;85;21110;-73
2022/03/25 02:40:07;;;;;;;26.40;18.20;;;;;;;4.44;70.63;100768.35;1659624;85;21420;-72
2022/03/25 02:42:34;;;;;;;30.23;20.40;;;;;;;4.47;70.66;100767.09;1662534;85;21092;-73
2022/03/25 02:45:06;;;;;;;26.65;19.52;;;;;;;4.51;70.66;100776.73;1681702;83;21216;-73
2022/03/25 02:47:34;;;;;;;27.20;19.95;;;;;;;4.56;70.64;100780.89;1699367;83;21217;-73
2022/03/25 02:50:03;;;;;;;31.65;20.90;;;;;;;4.63;70.58;100789.09;1672756;85;21095;-73
2022/03/25 02:52:31;;;;;;;34.13;22.77;;;;;;;4.69;70.59;100782.14;1684977;83;21051;-72
2022/03/25 02:54:58;;;;;;;35.63;24.30;;;;;;;4.79;70.59;100790.43;1693091;83;21153;-73
2022/03/25 02:57:26;;;;;;;30.50;22.65;;;;;;;4.87;70.58;100790.19;1679316;83;21264;-73
2022/03/25 02:59:53;;;;;;;39.27;25.82;;;;;;;4.96;70.53;100797.86;1673844;85;21039;-73
2022/03/25 03:02:23;;;;;;;40.58;26.80;;;;;;;4.99;70.52;100798.77;1689380;84;21070;-73
2022/03/25 03:04:51;;;;;;;34.92;24.00;;;;;;;5.07;70.50;100805.13;1693455;83;21134;-73
2022/03/25 03:07:18;;;;;;;39.98;26.65;;;;;;;5.13;70.48;100805.09;1694400;83;21102;-74
2022/03/25 03:09:46;;;;;;;32.53;23.60;;;;;;;5.14;70.44;100813.84;1691400;84;21221;-74
2022/03/25 03:12:13;;;;;;;32.35;22.62;;;;;;;5.19;70.46;100807.37;1691713;84;21066;-73
2022/03/25 03:14:40;;;;;;;24.55;18.98;;;;;;;5.22;70.38;100814.89;1690334;83;21749;-73
2022/03/25 03:17:11;;;;;;;29.30;21.48;;;;;;;5.18;70.31;100825.62;1692409;84;21672;-73
2022/03/25 03:19:38;;;;;;;24.65;18.87;;;;;;;5.07;70.35;100821.83;1682965;84;21043;-73
2022/03/25 03:22:07;;;;;;;27.60;20.92;;;;;;;5.01;70.48;100825.33;1688462;83;21566;-72
2022/03/25 03:24:34;;;;;;;28.50;22.35;;;;;;;4.98;70.56;100832.37;1688067;83;21101;-72
2022/03/25 03:27:04;;;;;;;29.32;22.42;;;;;;;4.98;70.63;100832.88;1692845;83;21113;-72
2022/03/25 03:29:31;;;;;;;28.95;21.87;;;;;;;4.96;70.63;100824.33;1687807;83;21070;-72
2022/03/25 03:31:58;;;;;;;30.60;22.85;;;;;;;4.93;70.61;100834.31;1690277;83;21517;-72
2022/03/25 03:34:25;;;;;;;28.25;21.00;;;;;;;4.91;70.57;100832.92;1691366;84;21203;-73
2022/03/25 03:36:52;;;;;;;28.27;22.27;;;;;;;4.91;70.53;100828.95;1691366;84;21046;-73
2022/03/25 03:39:20;;;;;;;28.75;20.57;;;;;;;4.93;70.47;100836.95;1699824;82;22162;-74
2022/03/25 03:41:48;;;;;;;29.42;22.05;;;;;;;4.92;70.29;100845.12;1691228;84;21082;-74
2022/03/25 03:44:16;;;;;;;29.42;22.40;;;;;;;4.91;70.15;100849.61;1694358;83;21609;-73
2022/03/25 03:46:43;;;;;;;30.23;21.80;;;;;;;4.87;70.02;100848.42;1682561;83;22016;-73
2022/03/25 03:49:10;;;;;;;27.13;21.82;;;;;;;4.86;69.96;100849.42;1697601;83;21563;-74
2022/03/25 03:51:39;;;;;;;28.15;22.70;;;;;;;4.87;69.87;100850.23;1701814;83;21061;-74
2022/03/25 03:54:06;;;;;;;24.57;19.23;;;;;;;4.87;69.81;100856.84;1690128;83;21562;-73
2022/03/25 03:56:34;;;;;;;27.90;21.27;;;;;;;4.89;69.70;100858.27;1689496;83;21054;-73
2022/03/25 03:59:02;;;;;;;26.15;20.45;;;;;;;4.92;69.56;100859.68;1692216;83;21194;-74
2022/03/25 04:01:29;;;;;;;24.98;19.67;;;;;;;4.93;69.39;100865.27;1692481;83;21046;-74
2022/03/25 04:03:57;;;;;;;26.73;20.88;;;;;;;4.94;69.20;100864.27;1683283;84;21093;-74
2022/03/25 04:06:25;;;;;;;29.57;22.77;;;;;;;4.94;68.99;100872.20;1680910;84;21101;-74
2022/03/25 04:08:56;;;;;;;29.15;24.10;;;;;;;4.93;68.84;100874.02;1690912;83;21650;-73
2022/03/25 04:11:23;;;;;;;29.52;22.45;;;;;;;4.96;68.74;100882.05;1690044;83;22220;-72
2022/03/25 04:13:52;;;;;;;26.37;20.65;;;;;;;4.95;68.60;100887.05;1693066;83;21019;-73
2022/03/25 04:16:20;;;;;;;28.60;22.98;;;;;;;4.99;68.43;100887.44;1699358;83;21086;-73
2022/03/25 04:18:49;;;;;;;26.60;20.32;;;;;;;4.99;68.17;100892.73;1664221;84;21565;-72
2022/03/25 04:21:16;;;;;;;25.68;20.02;;;;;;;5.02;68.00;100900.25;1642681;86;21080;-73
2022/03/25 04:23:44;;;;;;;25.57;19.87;;;;;;;5.04;67.65;100911.45;1659972;84;21649;-73
2022/03/25 04:26:11;;;;;;;27.27;20.82;;;;;;;5.03;67.21;100913.27;1639887;86;21667;-73
2022/03/25 04:28:40;;;;;;;24.12;18.48;;;;;;;5.05;66.90;100915.72;1673965;85;21063;-73
2022/03/25 04:31:07;;;;;;;23.73;18.57;;;;;;;5.08;66.55;100923.24;1690166;83;21131;-73
2022/03/25 04:33:36;;;;;;;26.05;19.42;;;;;;;5.04;66.01;100922.05;1691483;83;21059;-73
2022/03/25 04:36:03;;;;;;;23.47;18.55;;;;;;;5.03;65.67;100925.18;1691286;84;21351;-72
2022/03/25 04:38:31;;;;;;;21.60;17.32;;;;;;;5.05;65.56;100927.63;1687157;83;21020;-73
2022/03/25 04:40:58;;;;;;;23.45;17.82;;;;;;;5.07;65.31;100922.95;1674225;85;21039;-73
2022/03/25 04:43:25;;;;;;;23.85;18.82;;;;;;;5.08;65.06;100927.21;1674058;85;21056;-73
2022/03/25 04:45:52;;;;;;;22.07;17.00;;;;;;;5.08;64.71;100929.86;1680750;83;21086;-74
2022/03/25 04:48:21;;;;;;;21.02;16.73;;;;;;;5.06;64.28;100935.35;1673529;84;21235;-73
2022/03/25 04:50:48;;;;;;;22.20;16.65;;;;;;;5.04;64.06;100933.45;1690341;83;22278;-73
2022/03/25 04:53:15;;;;;;;20.55;15.43;;;;;;;5.05;64.07;100931.60;1697338;83;21055;-73
2022/03/25 04:55:43;;;;;;;21.40;16.45;;;;;;;5.08;63.80;100939.13;1663575;84;21039;-73
2022/03/25 04:58:10;;;;;;;19.37;14.95;;;;;;;5.11;63.49;100947.45;1663804;84;21035;-73
2022/03/25 05:00:38;;;;;;;22.48;16.05;;;;;;;5.14;63.01;100956.83;1679069;83;21168;-74
2022/03/25 05:03:05;;;;;;;18.27;15.00;;;;;;;5.18;62.58;100960.67;1677117;84;21066;-73
2022/03/25 05:05:34;;;;;;;18.87;14.38;;;;;;;5.23;62.56;100954.23;1679172;83;21177;-73
2022/03/25 05:08:02;;;;;;;18.27;14.65;;;;;;;5.30;61.92;100963.47;1681391;83;21059;-73
2022/03/25 05:10:30;;;;;;;19.15;14.30;;;;;;;5.32;61.35;100962.22;1680921;84;21117;-74
2022/03/25 05:12:59;;;;;;;18.77;14.63;;;;;;;5.32;60.78;100970.16;1681243;84;21082;-74
2022/03/25 05:15:26;;;;;;;17.98;13.70;;;;;;;5.25;60.91;100972.03;1678646;83;21553;-73
2022/03/25 05:17:54;;;;;;;19.20;14.95;;;;;;;5.24;60.64;100981.53;1681151;84;21093;-72
2022/03/25 05:20:24;;;;;;;20.55;14.98;;;;;;;5.22;60.83;100987.53;1675451;84;21093;-73
2022/03/25 05:22:53;;;;;;;20.32;15.23;;;;;;;5.23;60.70;101000.58;1680798;83;20971;-72
2022/03/25 05:25:21;;;;;;;17.92;14.73;;;;;;;5.17;60.56;101006.20;1686729;83;21134;-73
2022/03/25 05:27:55;;;;;;;19.12;14.13;;;;;;;5.13;60.64;101005.00;1687298;84;21078;-74
2022/03/25 05:30:26;;;;;;;20.57;14.40;;;;;;;5.15;60.51;101007.42;1695166;83;21043;-73
2022/03/25 05:32:55;;;;;;;18.77;13.78;;;;;;;5.18;60.42;101010.98;1684532;84;21031;-73
2022/03/25 05:35:23;;;;;;;16.97;13.25;;;;;;;5.18;60.17;101024.22;1682237;83;21067;-74
2022/03/25 05:37:51;;;;;;;18.73;14.47;;;;;;;5.16;60.07;101027.06;1680489;83;21269;-72
2022/03/25 05:40:20;;;;;;;20.15;15.83;;;;;;;5.16;60.06;101034.20;1681811;83;21030;-73
2022/03/25 05:42:48;;;;;;;23.32;16.65;;;;;;;5.17;59.89;101032.68;1684771;84;21007;-72
2022/03/25 05:45:19;;;;;;;22.58;15.85;;;;;;;5.17;59.53;101034.52;1674854;83;21110;-72
2022/03/25 05:47:47;;;;;;;23.60;16.70;;;;;;;5.16;59.61;101038.98;1676136;84;21045;-73
2022/03/25 05:50:14;;;;;;;25.48;17.60;;;;;;;5.21;59.69;101042.34;1669625;84;22338;-72
2022/03/25 05:52:42;;;;;;;25.57;17.92;;;;;;;5.28;59.66;101044.45;1685963;83;21058;-73
2022/03/25 05:55:10;;;;;;;25.10;17.42;;;;;;;5.38;59.62;101053.27;1676461;84;21085;-73
2022/03/25 05:57:37;;;;;;;27.95;18.92;;;;;;;5.47;59.48;101057.31;1683725;83;21467;-73
2022/03/25 06:00:08;;;;;;;20.95;15.48;;;;;;;5.55;59.34;101057.06;1675652;83;21046;-74
2022/03/25 06:02:42;;;;;;;22.05;15.90;;;;;;;5.64;59.05;101055.80;1681703;84;21201;-72
2022/03/25 06:05:11;;;;;;;21.62;15.68;;;;;;;5.72;58.55;101066.66;1679948;83;21522;-72
2022/03/25 06:07:40;;;;;;;19.48;14.13;;;;;;;5.76;58.48;101063.91;1683896;83;21141;-72
2022/03/25 06:10:09;;;;;;;19.05;13.38;;;;;;;5.84;58.39;101074.25;1686368;83;21042;-74
2022/03/25 06:12:38;;;;;;;18.55;14.03;;;;;;;5.93;58.13;101071.39;1677566;84;21137;-75
2022/03/25 06:15:06;;;;;;;17.37;12.78;;;;;;;5.95;57.81;101080.73;1679475;83;21281;-72
2022/03/25 06:17:46;;;;;;;17.52;13.10;;;;;;;6.02;57.78;101086.83;1679915;84;21261;-72
2022/03/25 06:20:16;;;;;;;16.35;11.73;;;;;;;6.10;57.40;101083.91;1684275;83;21098;-72
2022/03/25 06:22:44;;;;;;;16.07;11.15;;;;;;;6.17;57.35;101083.87;1682119;83;21031;-73
2022/03/25 06:25:12;;;;;;;14.33;10.30;;;;;;;6.25;57.36;101084.11;1680793;83;21121;-72
2022/03/25 06:27:53;;;;;;;13.65;10.35;;;;;;;6.29;57.18;101086.66;1684142;83;21058;-72
2022/03/25 06:30:22;;;;;;;14.28;10.30;;;;;;;6.36;57.14;101086.60;1678013;84;21093;-74
2022/03/25 06:32:51;;;;;;;14.90;11.40;;;;;;;6.48;56.74;101079.05;1675024;82;21118;-72
2022/03/25 06:35:19;;;;;;;15.70;11.00;;;;;;;6.56;56.73;101091.23;1675422;83;21109;-73
2022/03/25 06:37:47;;;;;;;11.95;9.43;;;;;;;6.63;56.37;101090.66;1679138;83;21605;-73
2022/03/25 06:40:15;;;;;;;14.58;9.68;;;;;;;6.71;56.19;101097.03;1679001;83;21233;-74
2022/03/25 06:42:44;;;;;;;12.13;9.13;;;;;;;6.83;55.78;101101.09;1683487;83;20995;-74
2022/03/25 06:45:13;;;;;;;11.85;9.43;;;;;;;6.93;55.41;101100.59;1681071;83;21176;-72
2022/03/25 06:47:43;;;;;;;12.53;8.90;;;;;;;6.99;55.11;101099.72;1685038;83;21046;-74
2022/03/25 06:50:13;;;;;;;13.80;9.28;;;;;;;7.10;54.59;101100.31;1680761;83;21078;-74
2022/03/25 06:52:41;;;;;;;12.70;9.15;;;;;;;7.19;54.42;101105.64;1681191;83;21347;-73
2022/03/25 06:55:11;;;;;;;11.45;8.98;;;;;;;7.33;54.27;101110.28;1686297;84;22656;-73
2022/03/25 06:57:40;;;;;;;12.23;8.95;;;;;;;7.46;53.51;101114.64;1678852;83;21039;-73
2022/03/25 07:00:12;;;;;;;10.78;8.28;;;;;;;7.54;52.68;101115.69;1678906;83;21071;-74
2022/03/25 07:02:40;;;;;;;13.32;9.28;;;;;;;7.64;52.21;101117.30;1690101;84;21003;-73
2022/03/25 07:05:11;;;;;;;12.13;8.45;;;;;;;7.79;51.92;101120.07;1688542;84;21196;-73
2022/03/25 07:07:40;;;;;;;10.58;8.18;;;;;;;7.88;50.72;101120.05;1677339;84;21466;-73
2022/03/25 07:10:09;;;;;;;11.28;8.28;;;;;;;7.94;50.71;101121.82;1685604;83;21534;-72
2022/03/25 07:12:39;;;;;;;10.80;7.55;;;;;;;8.07;50.71;101126.16;1686930;83;21019;-74
2022/03/25 07:15:09;;;;;;;9.73;7.05;;;;;;;8.21;50.12;101128.38;1678855;83;21043;-73
2022/03/25 07:17:38;;;;;;;10.45;7.28;;;;;;;8.34;49.07;101121.25;1636581;86;21250;-73
2022/03/25 07:20:07;;;;;;;10.00;7.58;;;;;;;8.47;48.73;101122.41;1632801;86;21040;-73
2022/03/25 07:22:36;;;;;;;9.63;7.53;;;;;;;8.58;48.55;101123.45;1637852;85;21758;-72
2022/03/25 07:25:06;;;;;;;11.95;8.10;;;;;;;8.67;48.59;101118.90;1640473;85;21519;-73
2022/03/25 07:27:34;;;;;;;10.03;7.45;;;;;;;8.72;47.49;101122.72;1698607;83;20971;-74
2022/03/25 07:30:01;;;;;;;9.73;6.75;;;;;;;8.76;47.70;101125.23;1687858;83;21858;-73
2022/03/25 07:32:29;;;;;;;9.50;7.12;;;;;;;8.86;46.42;101132.13;1685091;83;21106;-73
2022/03/25 07:34:57;;;;;;;9.98;6.95;;;;;;;8.92;46.52;101125.88;1678809;83;21030;-73
2022/03/25 07:37:24;;;;;;;8.45;6.50;;;;;;;9.00;46.10;101126.04;1690021;83;21082;-72
2022/03/25 07:39:53;;;;;;;10.13;7.37;;;;;;;9.06;45.77;101129.92;1680128;84;21102;-74
2022/03/25 07:42:20;;;;;;;9.48;7.17;;;;;;;9.13;45.00;101129.27;1686976;84;21680;-73
2022/03/25 07:44:49;;;;;;;9.00;6.80;;;;;;;9.24;44.37;101122.82;1676047;84;20967;-72
2022/03/25 07:47:17;;;;;;;8.70;6.87;;;;;;;9.28;44.34;101130.63;1681384;84;21042;-74
2022/03/25 07:49:45;;;;;;;8.85;7.08;;;;;;;9.35;44.45;101134.81;1669852;84;21074;-73
2022/03/25 07:52:14;;;;;;;8.23;6.50;;;;;;;9.43;44.26;101134.16;1672906;83;21622;-74
2022/03/25 07:54:42;;;;;;;10.10;7.33;;;;;;;9.49;43.39;101132.70;1678150;83;21256;-73
2022/03/25 07:57:10;;;;;;;9.95;6.80;;;;;;;9.47;42.75;101134.78;1676380;83;21015;-75
2022/03/25 07:59:37;;;;;;;8.65;7.37;;;;;;;9.47;43.33;101137.44;1680572;83;21090;-74
2022/03/25 08:02:05;;;;;;;9.25;7.37;;;;;;;9.47;43.42;101136.64;1681401;83;21046;-73
2022/03/25 08:04:33;;;;;;;8.20;6.45;;;;;;;9.49;43.73;101139.36;1677582;83;21148;-74
2022/03/25 08:07:00;;;;;;;8.00;6.50;;;;;;;9.56;43.17;101144.56;1697421;83;22234;-74
2022/03/25 08:09:28;;;;;;;10.53;8.23;;;;;;;9.62;42.70;101146.30;1694679;83;21090;-74
2022/03/25 08:11:55;;;;;;;9.50;6.65;;;;;;;9.63;42.66;101140.71;1675255;84;20993;-74
2022/03/25 08:14:22;;;;;;;8.23;6.25;;;;;;;9.65;42.17;101143.16;1662470;85;21067;-73
2022/03/25 08:16:50;;;;;;;8.88;6.92;;;;;;;9.67;40.24;101147.71;1673363;84;21172;-75
2022/03/25 08:19:18;;;;;;;7.67;5.75;;;;;;;9.70;40.82;101149.91;1683706;83;21107;-74
2022/03/25 08:21:45;;;;;;;7.92;6.60;;;;;;;9.76;41.31;101144.97;1676051;83;21027;-74
2022/03/25 08:28:01;;;;;;;9.55;5.83;;;;;;;9.96;40.98;101143.22;1676181;84;21078;-74
2022/03/25 08:29:36;;;;;;;7.62;6.12;;;;;;;10.05;39.82;101143.13;1672600;83;21134;-73
2022/03/25 08:32:05;;;;;;;7.53;5.87;;;;;;;10.08;39.07;101141.31;1689389;84;21141;-73
2022/03/25 08:34:33;;;;;;;8.70;6.05;;;;;;;10.13;39.65;101147.79;1678412;83;21095;-74
2022/03/25 08:37:00;;;;;;;6.92;5.83;;;;;;;10.20;39.82;101149.28;1684552;84;21019;-73
2022/03/25 08:39:27;;;;;;;7.78;5.67;;;;;;;10.32;39.95;101152.71;1693171;83;21063;-75
2022/03/25 08:41:55;;;;;;;7.65;5.83;;;;;;;10.45;38.75;101148.92;1686195;84;21106;-74
2022/03/25 08:44:22;;;;;;;6.90;5.30;;;;;;;10.49;38.57;101147.39;1680976;83;22015;-75
2022/03/25 08:46:50;;;;;;;6.35;5.22;;;;;;;10.54;37.93;101147.48;1663110;84;21547;-75
2022/03/25 08:49:20;;;;;;;7.15;5.67;;;;;;;10.59;37.89;101147.28;1681142;83;21066;-74
2022/03/25 08:51:47;;;;;;;7.33;5.78;;;;;;;10.66;37.92;101149.26;1677039;84;21114;-73
2022/03/25 08:54:14;;;;;;;8.03;5.87;;;;;;;10.74;37.98;101146.20;1675525;84;21082;-73
2022/03/25 08:56:41;;;;;;;6.47;5.03;;;;;;;10.85;37.44;101146.63;1676857;83;21269;-74
2022/03/25 08:59:09;;;;;;;7.15;5.45;;;;;;;10.92;37.07;101150.47;1681794;83;21042;-74
2022/03/25 09:01:36;;;;;;;6.83;5.30;;;;;;;10.98;36.50;101146.28;1687997;83;21391;-74
2022/03/25 09:04:03;;;;;;;7.12;6.03;;;;;;;11.07;37.41;101141.87;1679643;83;21035;-74
2022/03/25 09:06:33;;;;;;;8.48;7.05;;;;;;;11.18;37.61;101142.29;1691425;83;21050;-75
2022/03/25 09:09:02;;;;;;;8.63;6.33;;;;;;;11.27;37.91;101141.63;1656318;84;21024;-73
2022/03/25 09:11:30;;;;;;;8.20;6.65;;;;;;;11.32;37.84;101147.58;1669260;84;21007;-75
2022/03/25 09:14:00;;;;;;;7.50;5.25;;;;;;;11.34;37.76;101148.13;1667220;84;33337;-73
2022/03/25 09:16:27;;;;;;;6.58;5.03;;;;;;;11.40;37.34;101151.69;1680183;84;21158;-73
2022/03/25 09:18:56;;;;;;;6.92;5.53;;;;;;;11.49;36.96;101148.87;1681849;83;21097;-75
2022/03/25 09:21:25;;;;;;;9.10;6.25;;;;;;;11.59;36.74;101148.19;1685925;84;22228;-74
2022/03/25 09:23:52;;;;;;;7.42;6.03;;;;;;;11.56;37.43;101148.69;1693544;84;21015;-74
2022/03/25 09:26:20;;;;;;;7.65;6.17;;;;;;;11.60;37.19;101146.59;1689946;83;21070;-75
2022/03/25 09:28:47;;;;;;;6.15;5.20;;;;;;;11.68;37.10;101156.87;1682591;84;21098;-75
2022/03/25 09:31:16;;;;;;;7.10;5.62;;;;;;;11.76;36.60;101149.45;1673559;84;21117;-74
2022/03/25 09:33:43;;;;;;;8.95;6.28;;;;;;;11.76;36.66;101164.98;1666963;85;21278;-74
2022/03/25 09:36:10;;;;;;;8.35;6.65;;;;;;;11.75;36.44;101155.34;1673613;84;21098;-74
2022/03/25 09:38:38;;;;;;;7.90;6.37;;;;;;;11.76;36.70;101155.61;1678064;83;21054;-73
2022/03/25 09:41:07;;;;;;;9.00;6.78;;;;;;;11.74;36.26;101157.19;1676005;84;21119;-74
2022/03/25 09:43:34;;;;;;;8.13;6.87;;;;;;;11.73;36.34;101160.93;1678516;84;21030;-75
2022/03/25 09:46:04;;;;;;;8.45;7.37;;;;;;;11.79;36.00;101155.65;1683029;83;21336;-76
2022/03/25 09:48:31;;;;;;;9.55;7.15;;;;;;;11.82;36.32;101156.48;1680459;83;21015;-75
2022/03/25 09:50:58;;;;;;;10.00;6.53;;;;;;;11.83;36.28;101153.55;1676407;84;21073;-74
2022/03/25 09:53:29;;;;;;;11.90;7.37;;;;;;;11.78;36.34;101161.53;1684474;84;21003;-74
2022/03/25 09:55:58;;;;;;;8.45;6.62;;;;;;;11.83;36.28;101162.91;1679639;84;21051;-74
2022/03/25 09:58:28;;;;;;;9.45;7.45;;;;;;;11.93;36.40;101149.67;1693305;84;21466;-74
2022/03/25 10:00:54;;;;;;;10.63;8.50;;;;;;;11.99;35.92;101156.44;1693611;83;21062;-76
2022/03/25 10:03:40;;;;;;;8.23;7.20;;;;;;;11.66;37.27;101166.20;1685126;84;21121;-76
2022/03/25 10:06:12;;;;;;;10.63;8.08;;;;;;;11.55;37.04;101159.92;1651607;85;21098;-76
2022/03/25 10:08:39;;;;;;;9.75;7.50;;;;;;;11.54;37.47;101174.33;1631069;87;21143;-74
2022/03/25 10:11:31;;;;;;;9.95;8.08;;;;;;;11.65;37.90;101160.04;1629938;87;21664;-75
2022/03/25 10:14:15;;;;;;;8.65;7.15;;;;;;;11.80;37.15;101163.95;1624910;87;21605;-73
2022/03/25 10:16:45;;;;;;;10.10;7.70;;;;;;;11.92;36.87;101161.45;1636160;86;21004;-75
2022/03/25 10:19:19;;;;;;;8.67;6.93;;;;;;;11.99;36.64;101159.91;1637356;85;21103;-74
2022/03/25 10:21:58;;;;;;;9.75;8.03;;;;;;;12.08;36.57;101160.28;1637712;86;21088;-75
2022/03/25 10:24:48;;;;;;;8.78;7.30;;;;;;;12.04;36.19;101161.83;1631637;86;21191;-74
2022/03/25 10:27:15;;;;;;;9.65;7.10;;;;;;;11.97;36.51;101161.48;1635907;86;21063;-75
2022/03/25 10:29:45;;;;;;;9.55;8.05;;;;;;;12.09;36.84;101154.66;1636637;86;21587;-76
2022/03/25 10:32:15;;;;;;;11.10;8.30;;;;;;;12.27;36.11;101160.19;1639586;87;21531;-75
2022/03/25 10:34:43;;;;;;;9.65;7.15;;;;;;;12.27;36.22;101158.05;1651464;85;21033;-74
2022/03/25 10:37:13;;;;;;;9.65;7.30;;;;;;;12.33;36.33;101159.17;1639340;86;21165;-75
2022/03/25 10:39:42;;;;;;;8.20;6.77;;;;;;;12.43;36.05;101161.95;1648183;86;21071;-75
2022/03/25 10:42:09;;;;;;;9.20;6.70;;;;;;;12.57;35.76;101161.52;1655748;85;21113;-73
2022/03/25 10:44:41;;;;;;;10.17;7.27;;;;;;;12.69;35.08;101156.81;1652102;86;21294;-75
2022/03/25 10:47:21;;;;;;;9.00;7.00;;;;;;;12.67;35.34;101161.10;1646231;85;22311;-74
2022/03/25 10:49:48;;;;;;;7.85;6.42;;;;;;;12.70;35.55;101162.47;1643133;86;21635;-73
2022/03/25 10:52:32;;;;;;;9.87;6.73;;;;;;;12.74;35.69;101158.20;1644611;86;21092;-73
2022/03/25 10:55:23;;;;;;;9.97;8.23;;;;;;;12.81;35.97;101163.34;1644802;86;21892;-73
2022/03/25 10:57:56;;;;;;;7.33;6.07;;;;;;;13.01;35.92;101153.30;1646106;85;21398;-74
2022/03/25 11:00:24;;;;;;;9.57;6.97;;;;;;;13.15;35.45;101147.74;1641259;86;21491;-74
2022/03/25 11:02:53;;;;;;;10.03;6.60;;;;;;;13.21;34.77;101142.68;1643098;85;21803;-74
2022/03/25 11:05:20;;;;;;;10.13;7.10;;;;;;;13.28;34.52;101148.65;1634287;86;21833;-75
2022/03/25 11:07:48;;;;;;;10.70;7.93;;;;;;;13.32;34.64;101145.71;1635215;87;21283;-73
2022/03/25 11:10:17;;;;;;;10.03;7.20;;;;;;;13.40;34.63;101147.66;1636349;85;21725;-75
2022/03/25 11:12:51;;;;;;;8.00;6.67;;;;;;;13.44;34.19;101143.38;1634928;85;21285;-74
2022/03/25 11:15:20;;;;;;;8.93;7.33;;;;;;;13.47;34.02;101152.23;1631305;86;21869;-73
2022/03/25 11:17:48;;;;;;;10.07;7.57;;;;;;;13.47;33.96;101148.22;1644964;85;21331;-74
2022/03/25 11:20:16;;;;;;;8.07;6.83;;;;;;;13.48;33.87;101147.94;1636548;86;21203;-74
2022/03/25 11:23:11;;;;;;;8.37;6.70;;;;;;;13.52;33.98;101141.00;1649367;86;21399;-74
2022/03/25 11:25:45;;;;;;;9.30;6.80;;;;;;;13.60;33.55;101137.00;1689961;84;21192;-73
2022/03/25 11:28:19;;;;;;;9.37;7.37;;;;;;;13.63;33.70;101134.33;1678871;84;21307;-74
2022/03/25 11:31:00;;;;;;;10.13;6.50;;;;;;;13.73;33.43;101141.87;1683032;84;21406;-77
2022/03/25 11:33:27;;;;;;;9.17;7.23;;;;;;;13.75;33.26;101145.09;1682980;84;21378;-75